Time;durP1;ratioP1;P1;durP2;ratioP2;P2;SDS_P1;SDS_P2;PMS_P1;PMS_P2;Temp;Humidity;BMP_temperature;BMP_pressure;BME280_temperature;BME280_humidity;BME280_pressure;Samples;Min_cycle;Max_cycle;Signal;HPM_P1;HPM_P2
2022/01/19 00:00:57;;;;;;;14.23;11.68;;;19.40;99.90;;;;;;4235814;27;20221;-76
2022/01/19 00:03:03;;;;;;;13.80;11.18;;;19.40;99.90;;;;;;4238505;27;20267;-76
2022/01/19 00:05:07;;;;;;;13.93;11.10;;;19.40;99.90;;;;;;4242706;27;20732;-76
2022/01/19 00:07:12;;;;;;;13.43;11.57;;;19.30;99.90;;;;;;4236907;27;20218;-76
2022/01/19 00:09:16;;;;;;;12.43;11.13;;;19.40;99.90;;;;;;4241854;27;20229;-76
2022/01/19 00:11:20;;;;;;;14.40;11.15;;;19.40;99.90;;;;;;4217533;28;20248;-76
2022/01/19 00:13:24;;;;;;;13.20;11.50;;;19.30;99.90;;;;;;4242075;27;20236;-76
2022/01/19 00:15:29;;;;;;;14.40;11.65;;;19.30;99.90;;;;;;4237298;27;20665;-76
2022/01/19 00:17:31;;;;;;;13.57;11.45;;;19.30;99.90;;;;;;4232997;27;20217;-76
2022/01/19 00:19:35;;;;;;;13.68;11.73;;;19.30;99.90;;;;;;4232748;27;20270;-76
2022/01/19 00:21:38;;;;;;;15.57;10.98;;;19.30;99.90;;;;;;4231034;27;20272;-76
2022/01/19 00:23:44;;;;;;;12.48;10.68;;;19.30;99.90;;;;;;4246660;27;20270;-76
2022/01/19 00:25:48;;;;;;;14.23;11.23;;;19.30;99.90;;;;;;4248369;27;20213;-76
2022/01/19 00:27:52;;;;;;;14.75;11.52;;;19.30;99.90;;;;;;4231831;28;20243;-76
2022/01/19 00:29:54;;;;;;;15.50;11.70;;;19.30;99.90;;;;;;4232208;27;20218;-76
2022/01/19 00:31:56;;;;;;;12.93;10.40;;;19.30;99.90;;;;;;4236544;27;20262;-76
2022/01/19 00:34:00;;;;;;;13.13;10.93;;;19.30;99.90;;;;;;4230400;27;20242;-76
2022/01/19 00:36:03;;;;;;;13.50;11.38;;;19.20;99.90;;;;;;4230385;28;20341;-76
2022/01/19 00:38:07;;;;;;;13.90;11.52;;;19.20;99.90;;;;;;4238555;27;20638;-76
2022/01/19 00:40:14;;;;;;;15.43;11.68;;;19.20;99.90;;;;;;4231798;28;20217;-76
2022/01/19 00:42:18;;;;;;;14.05;11.18;;;19.20;99.90;;;;;;4231657;28;20239;-76
2022/01/19 00:44:23;;;;;;;14.50;11.35;;;19.20;99.90;;;;;;4230561;28;20263;-76
2022/01/19 00:46:27;;;;;;;13.68;11.40;;;19.20;99.90;;;;;;4236892;27;20221;-76
2022/01/19 00:48:31;;;;;;;13.63;11.73;;;19.20;99.90;;;;;;4237536;27;20222;-76
2022/01/19 00:50:33;;;;;;;14.13;11.98;;;19.20;99.90;;;;;;4232944;27;20209;-76
2022/01/19 00:52:37;;;;;;;12.35;10.60;;;19.10;99.90;;;;;;4242370;27;20222;-76
2022/01/19 00:54:41;;;;;;;13.23;11.15;;;19.10;99.90;;;;;;4226803;28;20226;-76
2022/01/19 00:56:44;;;;;;;13.88;11.07;;;19.10;99.90;;;;;;4230454;28;20270;-76
2022/01/19 00:58:47;;;;;;;14.90;11.98;;;19.10;99.90;;;;;;4234789;27;20262;-76
2022/01/19 01:00:51;;;;;;;13.45;11.15;;;19.10;99.90;;;;;;4232560;28;20214;-76
2022/01/19 01:02:53;;;;;;;13.63;11.00;;;19.10;99.90;;;;;;4241659;27;20618;-76
2022/01/19 01:04:56;;;;;;;14.32;11.32;;;19.10;99.90;;;;;;4242890;27;20218;-76
2022/01/19 01:07:02;;;;;;;13.48;11.55;;;19.10;99.90;;;;;;4232005;27;20643;-76
2022/01/19 01:09:05;;;;;;;13.63;10.95;;;19.10;99.90;;;;;;4233010;27;20736;-76
2022/01/19 01:11:07;;;;;;;12.30;10.65;;;19.10;99.90;;;;;;4232455;27;20217;-76
2022/01/19 01:13:22;;;;;;;13.73;10.93;;;19.10;99.90;;;;;;4244151;27;20213;-76
2022/01/19 01:15:36;;;;;;;16.13;11.60;;;19.10;99.90;;;;;;4231323;28;20748;-76
2022/01/19 01:20:01;;;;;;;14.15;11.82;;;19.00;99.90;;;;;;4230467;28;20194;-76
2022/01/19 01:22:04;;;;;;;12.77;11.10;;;19.00;99.90;;;;;;4239545;27;20266;-76
2022/01/19 01:24:13;;;;;;;13.82;11.10;;;19.00;99.90;;;;;;4233385;27;20258;-75
2022/01/19 01:26:16;;;;;;;14.23;10.63;;;19.00;99.90;;;;;;4230549;28;20267;-76
2022/01/19 01:28:20;;;;;;;14.40;11.45;;;19.00;99.90;;;;;;4231376;28;20325;-76
2022/01/19 01:30:22;;;;;;;14.32;11.20;;;18.90;99.90;;;;;;4234196;27;20279;-76
2022/01/19 01:32:27;;;;;;;13.65;11.13;;;18.90;99.90;;;;;;4240791;27;20209;-76
2022/01/19 01:34:31;;;;;;;15.30;11.27;;;19.00;99.90;;;;;;4232473;27;20242;-76
2022/01/19 01:36:36;;;;;;;12.55;10.63;;;18.90;99.90;;;;;;4230770;28;20260;-76
2022/01/19 01:38:38;;;;;;;12.85;10.95;;;18.90;99.90;;;;;;4230930;27;20270;-76
2022/01/19 01:40:43;;;;;;;13.13;11.73;;;18.90;99.90;;;;;;4230830;28;20222;-76
2022/01/19 01:42:47;;;;;;;14.10;11.15;;;18.90;99.90;;;;;;4236664;27;20612;-76
2022/01/19 01:44:52;;;;;;;13.63;11.27;;;18.90;99.90;;;;;;4247865;27;20220;-76
2022/01/19 01:47:00;;;;;;;12.85;11.25;;;18.90;99.90;;;;;;4232208;28;21016;-76
2022/01/19 01:49:03;;;;;;;13.23;11.82;;;18.90;99.90;;;;;;4241369;27;20559;-76
2022/01/19 01:53:30;;;;;;;14.50;12.25;;;18.90;99.90;;;;;;4246160;27;20193;-76
2022/01/19 01:55:33;;;;;;;13.90;11.75;;;18.90;99.90;;;;;;4230636;28;20279;-76
2022/01/19 01:57:35;;;;;;;14.10;12.45;;;18.80;99.90;;;;;;4245605;27;20232;-76
2022/01/19 01:59:38;;;;;;;15.40;11.93;;;18.90;99.90;;;;;;4243392;27;20221;-76
2022/01/19 02:01:41;;;;;;;16.73;12.20;;;18.90;99.90;;;;;;4247789;27;20265;-76
2022/01/19 02:03:45;;;;;;;13.38;12.00;;;18.80;99.90;;;;;;4240928;27;20270;-76
2022/01/19 02:08:17;;;;;;;15.60;12.32;;;18.80;99.90;;;;;;4215095;27;20286;-76
2022/01/19 02:10:33;;;;;;;13.30;11.90;;;18.80;99.90;;;;;;4247611;27;20661;-76
2022/01/19 02:22:03;;;;;;;14.32;12.75;;;18.80;99.90;;;;;;4230461;27;20621;-76
2022/01/19 02:24:08;;;;;;;14.18;12.68;;;18.80;99.90;;;;;;4230451;28;20267;-76
2022/01/19 02:26:17;;;;;;;14.65;12.63;;;18.80;99.90;;;;;;4242796;27;20213;-76
2022/01/19 02:40:12;;;;;;;17.05;14.02;;;18.70;99.90;;;;;;4211958;28;20596;-76
2022/01/19 02:42:17;;;;;;;15.52;13.93;;;18.70;99.90;;;;;;4194001;28;20586;-76
2022/01/19 02:44:35;;;;;;;14.38;12.88;;;18.70;99.90;;;;;;4197827;28;20238;-76
2022/01/19 02:46:54;;;;;;;15.35;13.48;;;18.70;99.90;;;;;;4206593;28;20211;-75
2022/01/19 02:49:15;;;;;;;15.50;13.60;;;18.70;99.90;;;;;;4202859;28;20255;-75
2022/01/19 02:51:18;;;;;;;16.13;13.85;;;18.70;99.90;;;;;;4197279;28;20715;-76
2022/01/19 02:53:22;;;;;;;16.88;14.15;;;18.70;99.90;;;;;;4196717;28;20270;-75
2022/01/19 02:55:31;;;;;;;17.45;13.77;;;18.70;99.90;;;;;;4204692;28;20257;-75
2022/01/19 02:57:35;;;;;;;16.60;13.48;;;18.70;99.90;;;;;;4194367;28;20272;-75
2022/01/19 02:59:49;;;;;;;16.48;13.85;;;18.60;99.90;;;;;;4211197;28;20218;-75
2022/01/19 03:08:54;;;;;;;15.27;13.68;;;18.70;99.90;;;;;;4195975;28;20191;-76
2022/01/19 03:10:56;;;;;;;15.68;13.48;;;18.70;99.90;;;;;;4206199;28;20244;-76
2022/01/19 03:13:03;;;;;;;16.02;14.18;;;18.60;99.90;;;;;;4212972;28;20218;-76
2022/01/19 03:15:09;;;;;;;16.55;14.05;;;18.60;99.90;;;;;;4198592;28;20246;-76
2022/01/19 03:17:12;;;;;;;17.40;14.70;;;18.60;99.90;;;;;;4208104;28;20815;-76
2022/01/19 03:19:16;;;;;;;15.57;13.68;;;18.60;99.90;;;;;;4196345;28;20280;-76
2022/01/19 03:21:19;;;;;;;18.27;14.05;;;18.60;99.90;;;;;;4207542;28;20253;-76
2022/01/19 03:23:21;;;;;;;17.48;13.98;;;18.60;99.90;;;;;;4203888;28;20327;-76
2022/01/19 03:25:25;;;;;;;15.73;13.75;;;18.60;99.90;;;;;;4195845;28;20215;-76
2022/01/19 03:27:28;;;;;;;16.17;13.38;;;18.60;99.90;;;;;;4208721;28;20663;-76
2022/01/19 03:29:30;;;;;;;16.60;13.98;;;18.60;99.90;;;;;;4198054;28;20273;-76
2022/01/19 03:31:33;;;;;;;15.02;13.07;;;18.60;99.90;;;;;;4196582;28;20227;-76
2022/01/19 03:33:35;;;;;;;16.88;13.85;;;18.60;99.90;;;;;;4220879;27;20244;-75
2022/01/19 03:35:39;;;;;;;15.65;13.73;;;18.60;99.90;;;;;;4234316;27;20238;-76
2022/01/19 03:37:46;;;;;;;14.57;13.07;;;18.60;99.90;;;;;;4216348;28;20256;-75
2022/01/19 03:39:49;;;;;;;17.15;14.63;;;18.60;99.90;;;;;;4240012;27;20274;-76
2022/01/19 03:41:53;;;;;;;15.13;13.52;;;18.60;99.90;;;;;;4234761;27;20920;-76
2022/01/19 03:43:55;;;;;;;16.05;14.30;;;18.60;99.90;;;;;;4232461;28;20263;-75
2022/01/19 03:45:59;;;;;;;15.85;13.32;;;18.60;99.90;;;;;;4249878;27;20262;-75
2022/01/19 03:48:21;;;;;;;14.90;12.70;;;18.60;99.90;;;;;;4237794;27;20255;-76
2022/01/19 03:50:23;;;;;;;14.88;12.82;;;18.60;99.90;;;;;;4243498;27;20221;-75
2022/01/19 03:52:26;;;;;;;15.65;13.32;;;18.60;99.90;;;;;;4245306;27;20269;-75
2022/01/19 03:54:29;;;;;;;15.90;13.55;;;18.60;99.90;;;;;;4228757;28;20207;-75
2022/01/19 03:56:32;;;;;;;14.35;12.90;;;18.50;99.90;;;;;;4246417;27;20237;-75
2022/01/19 03:58:36;;;;;;;14.35;12.85;;;18.50;99.90;;;;;;4235698;27;20287;-75
2022/01/19 04:00:42;;;;;;;14.98;13.35;;;18.50;99.90;;;;;;4233785;27;20658;-75
2022/01/19 04:02:44;;;;;;;14.00;12.35;;;18.50;99.90;;;;;;4249856;27;20213;-75
2022/01/19 04:04:52;;;;;;;13.77;12.27;;;18.50;99.90;;;;;;4234556;27;20661;-76
2022/01/19 04:06:59;;;;;;;15.57;12.32;;;18.50;99.90;;;;;;4240743;27;20638;-75
2022/01/19 04:09:03;;;;;;;15.13;12.85;;;18.50;99.90;;;;;;4232461;28;20588;-75
2022/01/19 04:11:05;;;;;;;16.20;13.30;;;18.50;99.90;;;;;;4234976;27;20969;-75
2022/01/19 04:13:22;;;;;;;15.38;12.95;;;18.50;99.90;;;;;;4245802;27;20262;-76
2022/01/19 04:15:26;;;;;;;12.77;11.55;;;18.50;99.90;;;;;;4218894;27;20294;-75
2022/01/19 04:17:31;;;;;;;15.40;12.95;;;18.50;99.90;;;;;;4238751;27;20220;-75
2022/01/19 04:19:42;;;;;;;15.02;12.27;;;18.50;99.90;;;;;;4256834;27;20278;-75
2022/01/19 04:21:45;;;;;;;13.35;11.32;;;18.50;99.90;;;;;;4241851;27;20548;-75
2022/01/19 04:23:49;;;;;;;15.63;12.52;;;18.50;99.90;;;;;;4233832;27;20258;-75
2022/01/19 04:25:51;;;;;;;13.20;11.45;;;18.50;99.90;;;;;;4237270;27;20288;-76
2022/01/19 04:27:53;;;;;;;13.43;12.13;;;18.50;99.90;;;;;;4247849;27;20238;-75
2022/01/19 04:30:02;;;;;;;13.05;11.75;;;18.50;99.90;;;;;;4228440;27;20618;-75
2022/01/19 04:32:11;;;;;;;13.93;12.45;;;18.50;99.90;;;;;;4228338;27;20682;-75
2022/01/19 04:34:16;;;;;;;13.60;11.98;;;18.50;99.90;;;;;;4246388;27;20743;-76
2022/01/19 04:36:29;;;;;;;13.43;11.38;;;18.50;99.90;;;;;;4230047;28;20568;-75
2022/01/19 04:39:19;;;;;;;13.68;11.55;;;18.50;99.90;;;;;;4244321;27;20575;-75
2022/01/19 04:48:58;;;;;;;14.05;10.95;;;18.50;99.90;;;;;;4238765;27;20193;-75
2022/01/19 05:03:07;;;;;;;12.70;10.55;;;18.40;99.90;;;;;;4232540;27;20194;-75
2022/01/19 05:05:18;;;;;;;11.82;10.48;;;18.40;99.90;;;;;;4248413;27;20213;-75
2022/01/19 05:07:22;;;;;;;11.70;10.45;;;18.50;99.90;;;;;;4210588;28;20203;-75
2022/01/19 05:09:49;;;;;;;12.98;10.65;;;18.40;99.90;;;;;;4244506;27;20217;-75
2022/01/19 05:14:08;;;;;;;13.18;10.77;;;18.40;99.90;;;;;;4231567;28;20646;-75
2022/01/19 05:16:11;;;;;;;12.02;10.80;;;18.40;99.90;;;;;;4243169;27;20232;-75
2022/01/19 05:18:13;;;;;;;11.90;10.70;;;18.40;99.90;;;;;;4246914;27;20627;-75
2022/01/19 05:20:18;;;;;;;12.73;10.52;;;18.40;99.90;;;;;;4247473;27;20217;-75
2022/01/19 05:22:21;;;;;;;11.18;10.02;;;18.40;99.90;;;;;;4247740;27;20220;-75
2022/01/19 05:24:23;;;;;;;12.13;9.98;;;18.40;99.90;;;;;;4243036;27;20238;-75
2022/01/19 05:26:28;;;;;;;11.02;9.80;;;18.40;99.90;;;;;;4233289;27;20218;-75
2022/01/19 05:28:31;;;;;;;11.77;10.23;;;18.30;99.90;;;;;;4213565;28;20210;-75
2022/01/19 05:30:33;;;;;;;12.05;10.85;;;18.40;99.90;;;;;;4232892;27;20215;-75
2022/01/19 05:32:35;;;;;;;10.98;9.32;;;18.40;99.90;;;;;;4243206;27;20734;-75
2022/01/19 05:34:38;;;;;;;10.82;9.57;;;18.30;99.90;;;;;;4247627;27;20240;-75
2022/01/19 05:36:42;;;;;;;12.52;9.18;;;18.40;99.90;;;;;;4233229;27;20238;-75
2022/01/19 05:38:44;;;;;;;12.88;9.85;;;18.40;99.90;;;;;;4230791;27;20617;-75
2022/01/19 05:40:46;;;;;;;10.23;9.20;;;18.40;99.90;;;;;;4235502;27;20281;-75
2022/01/19 05:42:49;;;;;;;10.65;9.55;;;18.40;99.90;;;;;;4244652;27;20205;-75
2022/01/19 05:44:52;;;;;;;11.65;9.63;;;18.30;99.80;;;;;;4231119;28;20255;-75
2022/01/19 05:46:54;;;;;;;10.48;9.38;;;18.30;99.80;;;;;;4239059;27;20235;-75
2022/01/19 05:48:56;;;;;;;12.98;9.93;;;18.30;99.80;;;;;;4237119;27;20242;-75
2022/01/19 05:50:59;;;;;;;10.35;9.25;;;18.30;99.80;;;;;;4237865;27;20225;-75
2022/01/19 05:53:03;;;;;;;12.00;9.45;;;18.30;99.90;;;;;;4235992;27;20661;-76
2022/01/19 05:55:05;;;;;;;10.48;9.02;;;18.20;99.90;;;;;;4237145;27;20214;-75
2022/01/19 05:57:08;;;;;;;12.77;9.55;;;17.90;99.90;;;;;;4228958;28;20233;-76
2022/01/19 05:59:10;;;;;;;9.80;8.80;;;17.90;99.90;;;;;;4238781;27;20212;-75
2022/01/19 06:01:13;;;;;;;10.48;8.88;;;18.10;99.90;;;;;;4234271;27;20217;-76
2022/01/19 06:03:16;;;;;;;9.88;8.65;;;18.20;99.90;;;;;;4241334;27;20221;-75
2022/01/19 06:05:18;;;;;;;9.68;8.55;;;18.30;99.90;;;;;;4241622;27;20294;-75
2022/01/19 06:07:26;;;;;;;9.80;8.07;;;18.30;99.90;;;;;;4231204;27;20201;-75
2022/01/19 06:09:48;;;;;;;9.25;8.25;;;18.30;99.90;;;;;;4230288;28;20681;-76
2022/01/19 06:11:51;;;;;;;12.05;9.32;;;18.30;99.90;;;;;;4230723;28;20222;-76
2022/01/19 06:13:53;;;;;;;9.20;8.15;;;18.30;99.90;;;;;;4228903;28;20270;-75
2022/01/19 06:15:55;;;;;;;9.30;8.25;;;18.40;99.90;;;;;;4247400;27;20221;-75
2022/01/19 06:17:58;;;;;;;10.43;8.45;;;18.40;99.90;;;;;;4232574;27;20287;-76
2022/01/19 06:20:00;;;;;;;8.75;7.65;;;18.40;99.90;;;;;;4228988;28;20202;-75
2022/01/19 06:22:02;;;;;;;9.25;7.97;;;18.40;99.90;;;;;;4244536;27;20213;-75
2022/01/19 06:24:05;;;;;;;9.70;7.75;;;18.40;99.90;;;;;;4230247;27;20218;-76
2022/01/19 06:26:09;;;;;;;8.68;7.50;;;18.40;99.90;;;;;;4230180;28;20615;-76
2022/01/19 06:28:11;;;;;;;7.40;6.65;;;18.40;99.90;;;;;;4240274;27;20216;-76
2022/01/19 06:30:14;;;;;;;8.70;7.55;;;18.40;99.90;;;;;;4246920;27;20209;-75
2022/01/19 06:32:16;;;;;;;9.63;7.85;;;18.40;99.90;;;;;;4229624;28;20714;-75
2022/01/19 06:34:19;;;;;;;8.43;7.13;;;18.40;99.90;;;;;;4245529;27;20252;-76
2022/01/19 06:36:21;;;;;;;7.93;7.05;;;18.40;99.90;;;;;;4243621;27;20242;-76
2022/01/19 06:38:23;;;;;;;8.82;6.70;;;18.50;99.90;;;;;;4226304;28;20221;-76
2022/01/19 06:40:27;;;;;;;7.30;6.60;;;18.50;99.90;;;;;;4236070;27;20217;-76
2022/01/19 06:42:31;;;;;;;7.07;6.38;;;18.50;99.90;;;;;;4230212;27;20213;-76
2022/01/19 06:44:34;;;;;;;8.05;6.90;;;18.50;99.90;;;;;;4230107;28;20955;-76
2022/01/19 06:46:36;;;;;;;7.72;6.75;;;18.50;99.90;;;;;;4245119;28;20265;-76
2022/01/19 06:48:38;;;;;;;8.13;6.70;;;18.60;99.90;;;;;;4230457;28;20267;-76
2022/01/19 06:50:41;;;;;;;7.28;6.13;;;18.50;99.90;;;;;;4230117;28;20607;-76
2022/01/19 06:52:49;;;;;;;7.32;6.57;;;18.50;99.90;;;;;;4245462;28;20205;-76
2022/01/19 06:54:52;;;;;;;7.40;6.53;;;18.50;99.90;;;;;;4245931;28;20261;-76
2022/01/19 06:56:54;;;;;;;7.13;6.43;;;18.60;99.90;;;;;;4230312;28;20230;-76
2022/01/19 06:58:58;;;;;;;7.15;6.13;;;18.60;99.90;;;;;;4227409;28;20214;-76
2022/01/19 07:01:00;;;;;;;6.90;6.20;;;18.70;99.90;;;;;;4230171;28;20645;-76
2022/01/19 07:03:02;;;;;;;8.65;6.07;;;18.60;99.90;;;;;;4230301;28;20217;-76
2022/01/19 07:05:05;;;;;;;7.47;5.70;;;18.70;99.90;;;;;;4227669;28;20266;-76
2022/01/19 07:07:09;;;;;;;6.72;5.78;;;18.60;99.90;;;;;;4230148;28;20266;-76
2022/01/19 07:09:12;;;;;;;6.82;6.13;;;18.60;99.90;;;;;;4237012;27;20628;-76
2022/01/19 07:11:15;;;;;;;5.93;5.30;;;18.70;99.90;;;;;;4250102;27;20212;-76
2022/01/19 07:13:18;;;;;;;6.90;5.82;;;18.80;99.90;;;;;;4237105;27;20213;-76
2022/01/19 07:15:22;;;;;;;6.72;5.82;;;18.70;99.90;;;;;;4229478;27;20310;-76
2022/01/19 07:17:24;;;;;;;6.82;6.07;;;18.70;99.90;;;;;;4231771;28;20282;-76
2022/01/19 07:19:28;;;;;;;5.68;5.10;;;18.80;99.90;;;;;;4236878;27;20707;-76
2022/01/19 07:21:30;;;;;;;5.72;5.13;;;18.80;99.90;;;;;;4236413;27;20229;-76
2022/01/19 07:23:32;;;;;;;7.97;5.47;;;18.80;99.90;;;;;;4233146;28;20259;-76
2022/01/19 07:25:35;;;;;;;5.93;5.35;;;18.90;99.90;;;;;;4235548;27;20281;-76
2022/01/19 07:27:37;;;;;;;7.03;5.32;;;18.90;99.90;;;;;;4250018;27;20208;-76
2022/01/19 07:29:39;;;;;;;5.80;5.20;;;18.90;99.90;;;;;;4249742;27;20220;-76
2022/01/19 07:31:43;;;;;;;5.53;4.95;;;18.90;99.90;;;;;;4239026;27;20213;-76
2022/01/19 07:33:46;;;;;;;5.40;4.90;;;18.90;99.90;;;;;;4229747;27;20755;-76
2022/01/19 07:35:51;;;;;;;7.00;5.47;;;18.90;99.90;;;;;;4231244;28;20214;-76
2022/01/19 07:37:53;;;;;;;5.22;4.72;;;18.90;99.90;;;;;;4240145;27;20658;-75
2022/01/19 07:39:57;;;;;;;5.63;5.05;;;18.90;99.90;;;;;;4234466;27;20222;-76
2022/01/19 07:41:59;;;;;;;5.63;4.82;;;18.90;99.90;;;;;;4232510;28;20237;-76
2022/01/19 07:44:01;;;;;;;5.75;5.15;;;19.00;99.90;;;;;;4232802;28;20205;-76
2022/01/19 07:46:04;;;;;;;5.30;4.72;;;18.90;99.90;;;;;;4231161;28;20206;-76
2022/01/19 07:48:08;;;;;;;5.20;4.70;;;19.00;99.90;;;;;;4229480;28;20250;-75
2022/01/19 07:50:11;;;;;;;5.72;4.70;;;19.00;99.90;;;;;;4232893;28;20290;-76
2022/01/19 07:52:13;;;;;;;6.80;4.95;;;19.00;99.90;;;;;;4244740;27;20259;-75
2022/01/19 07:54:16;;;;;;;5.10;4.40;;;19.00;99.90;;;;;;4227311;27;20283;-76
2022/01/19 07:56:18;;;;;;;5.47;4.88;;;19.00;99.90;;;;;;4230065;27;20213;-75
2022/01/19 07:58:20;;;;;;;5.05;4.55;;;19.00;99.90;;;;;;4238964;27;20241;-76
2022/01/19 08:00:23;;;;;;;4.85;4.30;;;19.00;99.90;;;;;;4249424;27;20213;-75
2022/01/19 08:02:32;;;;;;;5.95;4.40;;;19.10;99.90;;;;;;4249799;27;20270;-76
2022/01/19 08:04:36;;;;;;;4.63;4.22;;;19.10;99.90;;;;;;4249415;27;20217;-75
2022/01/19 08:06:38;;;;;;;4.85;4.40;;;19.10;99.90;;;;;;4248364;27;20282;-75
2022/01/19 08:08:40;;;;;;;7.55;4.80;;;19.10;99.90;;;;;;4229743;28;20264;-76
2022/01/19 08:10:45;;;;;;;6.43;4.95;;;19.10;99.90;;;;;;4236789;27;20247;-76
2022/01/19 08:12:50;;;;;;;5.50;4.70;;;19.10;99.90;;;;;;4219852;27;20213;-74
2022/01/19 08:14:53;;;;;;;6.32;4.90;;;19.10;99.90;;;;;;4233739;27;20214;-75
2022/01/19 08:16:55;;;;;;;6.22;4.82;;;19.30;99.90;;;;;;4236067;27;20270;-76
2022/01/19 08:18:58;;;;;;;5.28;4.65;;;19.40;99.90;;;;;;4225484;28;20623;-74
2022/01/19 08:21:02;;;;;;;9.38;4.15;;;19.50;99.90;;;;;;4229712;27;20294;-76
2022/01/19 08:23:06;;;;;;;7.63;4.32;;;19.70;99.90;;;;;;4228104;27;20218;-75
2022/01/19 08:25:09;;;;;;;5.05;4.47;;;19.70;99.90;;;;;;4225345;28;20219;-75
2022/01/19 08:27:12;;;;;;;5.50;4.60;;;19.80;99.90;;;;;;4221771;27;20663;-75
2022/01/19 08:29:15;;;;;;;6.05;4.63;;;19.90;99.90;;;;;;4224783;27;20286;-75
2022/01/19 08:31:17;;;;;;;5.07;4.30;;;20.00;99.90;;;;;;4224172;27;20275;-75
2022/01/19 08:33:20;;;;;;;4.90;4.50;;;20.10;99.90;;;;;;4227054;27;20307;-75
2022/01/19 08:35:23;;;;;;;4.90;4.50;;;20.00;99.90;;;;;;4235276;27;20259;-74
2022/01/19 08:37:27;;;;;;;5.13;4.30;;;20.10;99.90;;;;;;4229215;27;20217;-75
2022/01/19 08:39:30;;;;;;;4.85;4.20;;;20.20;99.90;;;;;;4229091;27;20213;-76
2022/01/19 08:41:33;;;;;;;7.03;4.13;;;20.20;99.90;;;;;;4228889;27;20271;-76
2022/01/19 08:43:35;;;;;;;7.03;4.30;;;20.40;99.90;;;;;;4229360;27;20217;-73
2022/01/19 08:45:38;;;;;;;13.88;5.07;;;20.40;99.90;;;;;;4227555;27;20266;-80
2022/01/19 08:47:41;;;;;;;15.13;4.55;;;20.40;99.90;;;;;;4228023;27;20222;-76
2022/01/19 08:49:43;;;;;;;5.63;3.72;;;20.40;99.90;;;;;;4222949;27;20707;-76
2022/01/19 08:51:46;;;;;;;5.40;4.15;;;20.50;99.90;;;;;;4225299;28;21663;-74
2022/01/19 08:53:49;;;;;;;5.38;4.10;;;20.50;99.90;;;;;;4224280;28;20218;-78
2022/01/19 08:55:52;;;;;;;5.53;4.30;;;20.60;99.90;;;;;;4226072;28;20214;-73
2022/01/19 08:57:54;;;;;;;6.78;4.03;;;20.60;99.90;;;;;;4225413;27;20233;-74
2022/01/19 08:59:57;;;;;;;4.82;4.00;;;20.70;99.90;;;;;;4226419;28;20254;-78
2022/01/19 09:01:59;;;;;;;5.97;4.28;;;20.80;99.90;;;;;;4227505;28;20213;-74
2022/01/19 09:04:02;;;;;;;5.03;3.95;;;20.70;99.90;;;;;;4225678;28;20255;-73
2022/01/19 09:06:04;;;;;;;4.50;4.00;;;20.60;99.90;;;;;;4220054;28;20214;-74
2022/01/19 09:08:08;;;;;;;6.53;4.15;;;20.60;99.90;;;;;;4226781;27;20263;-75
2022/01/19 09:10:13;;;;;;;4.32;3.90;;;20.60;99.90;;;;;;4225970;27;20229;-75
2022/01/19 09:12:16;;;;;;;7.55;4.30;;;20.70;99.90;;;;;;4228274;27;20213;-72
2022/01/19 09:14:18;;;;;;;5.13;4.00;;;20.70;99.90;;;;;;4226073;27;20217;-74
2022/01/19 09:16:20;;;;;;;5.75;4.00;;;20.90;99.50;;;;;;4220161;27;20210;-74
2022/01/19 09:18:23;;;;;;;4.55;4.10;;;20.80;99.80;;;;;;4222890;27;20238;-76
2022/01/19 09:20:26;;;;;;;4.25;3.85;;;20.80;99.90;;;;;;4226294;27;20663;-77
2022/01/19 09:22:28;;;;;;;4.65;4.20;;;20.70;99.90;;;;;;4225734;27;20217;-76
2022/01/19 09:24:31;;;;;;;9.07;4.57;;;20.70;99.90;;;;;;4226126;27;20221;-76
2022/01/19 09:26:34;;;;;;;10.85;3.80;;;20.80;99.10;;;;;;4224600;27;20217;-76
2022/01/19 09:28:37;;;;;;;5.80;4.40;;;20.90;99.70;;;;;;4224530;27;20349;-76
2022/01/19 09:30:40;;;;;;;7.50;4.47;;;20.90;99.40;;;;;;4227455;27;20262;-76
2022/01/19 09:32:44;;;;;;;5.40;3.88;;;20.90;99.50;;;;;;4229801;27;20258;-76
2022/01/19 09:34:54;;;;;;;4.32;3.92;;;21.00;99.30;;;;;;4225349;28;20290;-76
2022/01/19 09:36:56;;;;;;;5.22;3.88;;;21.00;99.70;;;;;;4225333;28;20222;-76
2022/01/19 09:38:59;;;;;;;5.10;4.07;;;21.10;99.80;;;;;;4227225;27;20241;-76
2022/01/19 09:41:07;;;;;;;5.72;4.35;;;21.10;99.90;;;;;;4226035;28;20213;-76
2022/01/19 09:43:11;;;;;;;4.53;3.72;;;21.10;99.90;;;;;;4222952;27;20250;-77
2022/01/19 09:45:14;;;;;;;8.10;4.05;;;21.10;99.90;;;;;;4224423;28;20214;-74
2022/01/19 09:47:17;;;;;;;7.13;4.05;;;21.10;99.30;;;;;;4225788;27;20267;-77
2022/01/19 09:49:21;;;;;;;6.45;4.28;;;21.10;99.60;;;;;;4226198;28;20650;-77
2022/01/19 09:51:23;;;;;;;4.70;4.00;;;21.10;99.90;;;;;;4228094;27;20234;-77
2022/01/19 09:53:26;;;;;;;6.10;4.18;;;21.00;99.90;;;;;;4224418;28;20236;-78
2022/01/19 09:55:28;;;;;;;5.07;4.20;;;20.90;99.90;;;;;;4224926;27;20213;-78
2022/01/19 09:57:34;;;;;;;4.47;4.07;;;20.90;99.90;;;;;;4223914;28;20218;-77
2022/01/19 09:59:37;;;;;;;4.50;4.10;;;20.80;99.90;;;;;;4225377;28;20282;-77
2022/01/19 10:01:50;;;;;;;5.30;4.43;;;20.90;99.90;;;;;;4221515;28;20214;-77
2022/01/19 10:03:54;;;;;;;4.25;3.85;;;20.90;99.60;;;;;;4220255;28;20670;-75
2022/01/19 10:06:05;;;;;;;5.55;4.20;;;20.90;99.90;;;;;;4225478;27;20610;-77
2022/01/19 10:08:07;;;;;;;4.63;3.67;;;20.80;99.90;;;;;;4225557;27;20715;-75
2022/01/19 10:10:11;;;;;;;6.53;4.10;;;20.90;99.90;;;;;;4228531;27;20213;-75
2022/01/19 10:16:59;;;;;;;6.07;4.03;;;20.90;99.90;;;;;;4195270;27;20205;-76
2022/01/19 10:19:13;;;;;;;6.85;3.92;;;20.90;99.90;;;;;;4224242;28;20617;-75
2022/01/19 10:21:16;;;;;;;4.20;3.80;;;21.00;99.90;;;;;;4225619;28;20708;-74
2022/01/19 10:23:37;;;;;;;7.75;4.10;;;21.00;99.90;;;;;;4225470;27;20913;-75
2022/01/19 10:25:50;;;;;;;9.48;4.25;;;20.90;99.90;;;;;;4218631;28;20870;-72
2022/01/19 10:27:52;;;;;;;8.43;4.35;;;21.00;99.90;;;;;;4218913;28;20811;-77
2022/01/19 10:29:57;;;;;;;10.25;4.03;;;20.80;99.90;;;;;;4227654;27;20205;-80
2022/01/19 10:32:05;;;;;;;8.52;4.25;;;21.00;99.90;;;;;;4229868;27;20262;-79
2022/01/19 10:34:13;;;;;;;7.85;3.70;;;21.00;99.90;;;;;;4228942;27;20233;-78
2022/01/19 10:36:15;;;;;;;7.80;3.85;;;21.10;99.90;;;;;;4231356;27;20652;-75
2022/01/19 10:38:20;;;;;;;10.15;4.25;;;21.10;99.90;;;;;;4225423;28;20222;-77
2022/01/19 10:40:22;;;;;;;19.00;4.68;;;21.20;99.90;;;;;;4235195;27;20271;-75
2022/01/19 10:42:27;;;;;;;7.47;3.65;;;21.10;99.90;;;;;;4224214;28;20259;-78
2022/01/19 10:44:34;;;;;;;16.55;4.50;;;21.20;99.90;;;;;;4222403;28;20217;-80
2022/01/19 10:46:39;;;;;;;20.38;5.65;;;21.20;99.90;;;;;;4218438;28;20672;-77
2022/01/19 10:48:45;;;;;;;10.00;3.95;;;21.20;99.90;;;;;;4216257;28;20267;-74
2022/01/19 10:50:48;;;;;;;6.40;3.95;;;21.20;99.90;;;;;;4226031;28;20218;-80
2022/01/19 10:52:51;;;;;;;12.45;4.10;;;21.20;99.90;;;;;;4223938;28;20243;-73
2022/01/19 10:54:53;;;;;;;9.60;4.63;;;21.10;99.90;;;;;;4242788;28;20212;-75
2022/01/19 10:56:58;;;;;;;4.85;3.60;;;21.20;99.90;;;;;;4237408;28;20228;-75
2022/01/19 10:59:04;;;;;;;5.63;4.00;;;21.20;99.90;;;;;;4228080;28;20241;-76
2022/01/19 11:01:07;;;;;;;8.55;3.88;;;21.10;99.90;;;;;;4225537;28;20977;-78
2022/01/19 11:03:17;;;;;;;7.68;3.38;;;21.20;99.90;;;;;;4225786;28;20608;-74
2022/01/19 11:05:42;;;;;;;6.70;3.50;;;21.20;99.90;;;;;;4226015;28;20217;-74
2022/01/19 11:07:45;;;;;;;8.27;3.80;;;21.20;99.90;;;;;;4221777;28;20221;-76
2022/01/19 11:09:57;;;;;;;7.90;4.05;;;21.20;99.90;;;;;;4225556;28;20290;-76
2022/01/19 11:12:03;;;;;;;6.50;4.20;;;21.20;99.90;;;;;;4221701;28;20221;-74
2022/01/19 11:14:06;;;;;;;5.95;4.30;;;21.30;99.90;;;;;;4227103;28;20214;-75
2022/01/19 11:16:09;;;;;;;5.90;4.10;;;21.30;99.90;;;;;;4225223;28;20314;-75
2022/01/19 11:18:11;;;;;;;10.40;3.20;;;21.20;99.90;;;;;;4222923;28;20296;-73
2022/01/19 11:20:20;;;;;;;10.82;3.58;;;21.20;99.90;;;;;;4222811;28;20237;-72
2022/01/19 11:22:40;;;;;;;7.82;4.07;;;21.20;99.90;;;;;;4229284;28;20268;-73
2022/01/19 11:24:54;;;;;;;7.03;3.70;;;21.20;99.90;;;;;;4223430;28;20247;-74
2022/01/19 11:26:58;;;;;;;7.60;3.72;;;21.20;99.90;;;;;;4225194;28;20240;-74
2022/01/19 11:29:14;;;;;;;6.50;3.78;;;21.20;99.90;;;;;;4226639;28;20255;-72
2022/01/19 11:31:19;;;;;;;4.82;3.80;;;21.20;99.90;;;;;;4225040;28;20222;-73
2022/01/19 11:33:25;;;;;;;5.72;3.55;;;21.20;99.90;;;;;;4223730;28;20621;-73
2022/01/19 11:35:33;;;;;;;6.72;3.50;;;21.20;99.90;;;;;;4225370;28;20225;-74
2022/01/19 11:37:38;;;;;;;3.55;3.15;;;21.20;99.90;;;;;;4227198;28;20273;-73
2022/01/19 11:39:59;;;;;;;8.73;4.07;;;21.20;99.90;;;;;;4225150;28;20226;-73
2022/01/19 11:42:04;;;;;;;4.80;3.55;;;21.20;99.90;;;;;;4222995;28;20210;-75
2022/01/19 11:44:08;;;;;;;8.20;3.75;;;21.30;99.90;;;;;;4220804;28;20209;-75